createdAt,value
2019-02-21T00:02:22.565Z,99.90
2019-02-21T00:04:52.286Z,99.90
2019-02-21T00:07:22.052Z,99.90
2019-02-21T00:09:51.800Z,99.90
2019-02-21T00:12:21.709Z,99.90
2019-02-21T00:14:51.433Z,99.90
2019-02-21T00:17:21.158Z,99.90
2019-02-21T00:19:50.842Z,99.90
2019-02-21T00:22:20.510Z,99.90
2019-02-21T00:24:50.520Z,99.90
2019-02-21T00:27:21.296Z,99.90
2019-02-21T00:29:50.953Z,99.90
2019-02-21T00:32:20.649Z,99.90
2019-02-21T00:34:50.292Z,99.90
2019-02-21T00:37:21.020Z,99.90
2019-02-21T00:39:50.789Z,99.90
2019-02-21T00:42:20.558Z,99.90
2019-02-21T00:44:50.328Z,99.90
2019-02-21T00:47:20.041Z,99.90
2019-02-21T00:49:49.703Z,99.90
2019-02-21T00:52:19.924Z,99.90
2019-02-21T00:54:49.648Z,99.90
2019-02-21T00:57:19.565Z,99.90
2019-02-21T00:59:50.937Z,99.90
2019-02-21T01:02:20.705Z,99.90
2019-02-21T01:04:50.502Z,99.90
2019-02-21T01:07:20.206Z,99.90
2019-02-21T01:09:49.854Z,99.90
2019-02-21T01:12:19.553Z,99.90
2019-02-21T01:14:49.340Z,99.90
2019-02-21T01:17:19.509Z,99.90
2019-02-21T01:19:49.146Z,99.90
2019-02-21T01:22:20.021Z,99.90
2019-02-21T01:24:49.775Z,99.90
2019-02-21T01:27:19.457Z,99.90
2019-02-21T01:29:49.183Z,99.90
2019-02-21T01:32:18.903Z,99.90
2019-02-21T01:34:48.629Z,99.90
2019-02-21T01:37:18.349Z,99.90
2019-02-21T01:39:48.089Z,99.90
2019-02-21T01:42:17.817Z,99.90
2019-02-21T01:44:47.572Z,99.90
2019-02-21T01:47:17.353Z,99.90
2019-02-21T01:49:47.056Z,99.90
2019-02-21T01:52:16.681Z,99.90
2019-02-21T01:54:46.309Z,99.90
2019-02-21T01:57:16.017Z,99.90
2019-02-21T01:59:45.828Z,99.90
2019-02-21T02:02:15.437Z,99.90
2019-02-21T02:04:45.127Z,99.90
2019-02-21T02:07:14.805Z,99.90
2019-02-21T02:09:44.397Z,99.90
2019-02-21T02:12:14.061Z,99.90
2019-02-21T02:14:44.189Z,99.90
2019-02-21T02:17:13.864Z,99.90
2019-02-21T02:19:43.487Z,99.90
2019-02-21T02:22:13.144Z,99.90
2019-02-21T02:24:42.845Z,99.90
2019-02-21T02:27:12.493Z,99.90
2019-02-21T02:29:42.367Z,99.90
2019-02-21T02:32:12.073Z,99.90
2019-02-21T02:34:41.726Z,99.90
2019-02-21T02:37:11.512Z,99.90
2019-02-21T02:39:41.249Z,99.90
2019-02-21T02:42:10.937Z,99.90
2019-02-21T02:44:40.577Z,99.90
2019-02-21T02:47:10.334Z,99.90
2019-02-21T02:49:40.000Z,99.90
2019-02-21T02:52:09.632Z,99.90
2019-02-21T02:54:39.574Z,99.90
2019-02-21T02:57:09.358Z,99.90
2019-02-21T02:59:41.111Z,99.90
2019-02-21T03:02:10.441Z,99.90
2019-02-21T03:04:40.227Z,99.90
2019-02-21T03:07:09.928Z,99.90
2019-02-21T03:09:39.682Z,99.90
2019-02-21T03:12:09.358Z,99.90
2019-02-21T03:14:39.093Z,99.90
2019-02-21T03:17:08.701Z,99.90
2019-02-21T03:19:38.458Z,99.90
2019-02-21T03:22:08.189Z,99.90
2019-02-21T03:24:37.835Z,99.90
2019-02-21T03:27:07.534Z,99.90
2019-02-21T03:29:37.251Z,99.90
2019-02-21T03:32:06.978Z,99.90
2019-02-21T03:34:36.590Z,99.90
2019-02-21T03:37:06.237Z,99.90
2019-02-21T03:39:35.879Z,99.90
2019-02-21T03:42:05.621Z,99.90
2019-02-21T03:44:35.339Z,99.90
2019-02-21T03:47:05.089Z,99.90
2019-02-21T03:49:34.868Z,99.90
2019-02-21T03:52:04.481Z,99.90
2019-02-21T03:54:34.157Z,99.90
2019-02-21T03:57:03.770Z,99.90
2019-02-21T03:59:33.503Z,99.90
2019-02-21T04:02:05.597Z,99.90
2019-02-21T04:04:35.629Z,99.90
2019-02-21T04:07:05.504Z,99.90
2019-02-21T04:09:35.189Z,99.90
2019-02-21T04:12:04.890Z,99.90
2019-02-21T04:14:34.900Z,99.90
2019-02-21T04:17:04.579Z,99.90
2019-02-21T04:19:34.794Z,99.90
2019-02-21T04:22:04.453Z,99.90
2019-02-21T04:24:34.126Z,99.90
2019-02-21T04:27:03.925Z,99.90
2019-02-21T04:29:34.520Z,99.90
2019-02-21T04:32:09.116Z,99.90
2019-02-21T04:34:35.612Z,99.90
2019-02-21T04:37:05.263Z,99.90
2019-02-21T04:39:34.924Z,99.90
2019-02-21T04:42:04.570Z,99.90
2019-02-21T04:44:34.255Z,99.90
2019-02-21T04:47:04.018Z,99.90
2019-02-21T04:49:33.776Z,99.90
2019-02-21T04:52:03.469Z,99.90
2019-02-21T04:54:33.216Z,99.90
2019-02-21T04:57:02.909Z,99.90
2019-02-21T04:59:32.657Z,99.90
2019-02-21T05:02:02.430Z,99.90
2019-02-21T05:04:32.181Z,99.90
2019-02-21T05:07:01.969Z,99.90
2019-02-21T05:09:31.641Z,99.90
2019-02-21T05:12:01.390Z,99.90
2019-02-21T05:14:31.132Z,99.90
2019-02-21T05:17:00.905Z,99.90
2019-02-21T05:19:30.620Z,99.90
2019-02-21T05:22:00.309Z,99.90
2019-02-21T05:24:32.166Z,99.90
2019-02-21T05:27:07.385Z,99.90
2019-02-21T05:29:37.065Z,99.90
2019-02-21T05:32:13.987Z,99.90
2019-02-21T05:35:05.726Z,99.90
2019-02-21T05:38:14.413Z,99.90
2019-02-21T05:41:06.182Z,99.90
2019-02-21T05:43:57.873Z,99.90
2019-02-21T05:46:47.997Z,99.90
2019-02-21T05:49:46.963Z,99.90
2019-02-21T05:52:34.138Z,99.90
2019-02-21T05:55:12.459Z,99.90
2019-02-21T05:57:52.823Z,99.90
2019-02-21T06:00:50.408Z,99.90
2019-02-21T06:03:44.950Z,99.90
2019-02-21T06:06:33.116Z,99.90
2019-02-21T06:09:24.732Z,99.90
2019-02-21T06:12:15.436Z,99.90
2019-02-21T06:15:00.306Z,99.90
2019-02-21T06:17:45.649Z,99.90
2019-02-21T06:20:49.341Z,99.90
2019-02-21T06:23:49.094Z,99.90
2019-02-21T06:26:23.646Z,99.90
2019-02-21T06:28:58.335Z,99.90
2019-02-21T06:31:28.064Z,99.90
2019-02-21T06:34:00.047Z,99.90
2019-02-21T06:36:29.805Z,99.90
2019-02-21T06:38:59.528Z,99.90
2019-02-21T06:41:29.886Z,99.90
2019-02-21T06:44:00.022Z,99.90
2019-02-21T06:46:29.774Z,99.90
2019-02-21T06:48:59.554Z,99.90
2019-02-21T06:51:29.297Z,99.90
2019-02-21T06:53:59.069Z,99.90
2019-02-21T06:56:30.001Z,99.90
2019-02-21T06:58:59.734Z,99.90
2019-02-21T07:01:29.765Z,99.90
2019-02-21T07:04:01.811Z,99.90
2019-02-21T07:06:32.436Z,99.90
2019-02-21T07:09:02.346Z,99.90
2019-02-21T07:11:32.109Z,99.90
2019-02-21T07:14:03.636Z,99.90
2019-02-21T07:16:33.346Z,99.90
2019-02-21T07:19:03.101Z,99.90
2019-02-21T07:21:32.958Z,99.90
2019-02-21T07:24:02.584Z,99.90
2019-02-21T07:26:32.423Z,99.90
2019-02-21T07:29:02.174Z,99.90
2019-02-21T07:31:32.779Z,99.90
2019-02-21T07:34:02.764Z,99.90
2019-02-21T07:36:32.528Z,99.90
2019-02-21T07:39:16.202Z,99.90
2019-02-21T07:41:33.689Z,99.90
2019-02-21T07:44:11.722Z,99.90
2019-02-21T07:46:34.877Z,99.90
2019-02-21T07:49:04.674Z,99.90
2019-02-21T07:51:36.035Z,99.90
2019-02-21T07:54:06.217Z,99.90
2019-02-21T07:56:42.067Z,99.90
2019-02-21T07:59:07.396Z,99.90
2019-02-21T08:01:37.790Z,99.90
2019-02-21T08:04:07.489Z,99.90
2019-02-21T08:06:37.265Z,99.90
2019-02-21T08:09:08.850Z,99.90
2019-02-21T08:11:38.562Z,99.90
2019-02-21T08:14:08.676Z,99.90
2019-02-21T08:16:38.414Z,99.90
2019-02-21T08:19:08.147Z,99.90
2019-02-21T08:21:37.894Z,99.90
2019-02-21T08:24:07.689Z,99.90
2019-02-21T08:26:37.345Z,99.90
2019-02-21T08:29:07.005Z,99.90
2019-02-21T08:31:36.725Z,99.90
2019-02-21T08:34:23.110Z,99.90
2019-02-21T08:36:52.828Z,99.90
2019-02-21T08:39:22.493Z,99.90
2019-02-21T08:41:52.137Z,99.90
2019-02-21T08:44:21.830Z,99.90
2019-02-21T08:46:53.543Z,99.90
2019-02-21T08:49:23.011Z,99.90
2019-02-21T08:51:55.005Z,99.90
2019-02-21T08:54:24.314Z,99.90
2019-02-21T08:56:53.965Z,99.90
2019-02-21T08:59:26.182Z,99.90
2019-02-21T09:01:55.979Z,99.90
2019-02-21T09:04:27.681Z,99.90
2019-02-21T09:06:56.982Z,99.90
2019-02-21T09:09:26.701Z,99.90
2019-02-21T09:11:56.353Z,99.90
2019-02-21T09:14:25.998Z,99.90
2019-02-21T09:16:55.719Z,99.90
2019-02-21T09:19:25.417Z,99.90
2019-02-21T09:21:55.121Z,99.90
2019-02-21T09:24:37.471Z,99.90
2019-02-21T09:26:58.094Z,99.90
2019-02-21T09:29:28.477Z,99.90
2019-02-21T09:31:58.146Z,99.90
2019-02-21T09:34:27.921Z,99.90
2019-02-21T09:36:57.677Z,99.90
2019-02-21T09:39:27.452Z,99.90
2019-02-21T09:41:57.182Z,99.90
2019-02-21T09:44:27.421Z,99.90
2019-02-21T09:46:57.669Z,99.90
2019-02-21T09:49:27.369Z,99.90
2019-02-21T09:51:57.113Z,99.90
2019-02-21T09:54:28.973Z,99.80
2019-02-21T09:56:58.691Z,98.10
2019-02-21T09:59:28.888Z,97.80
2019-02-21T10:01:58.863Z,96.60
2019-02-21T10:04:32.023Z,98.40
2019-02-21T10:06:59.954Z,97.50
2019-02-21T10:09:29.694Z,99.60
2019-02-21T10:11:59.465Z,93.60
2019-02-21T10:14:29.263Z,91.50
2019-02-21T10:16:59.019Z,92.70
2019-02-21T10:19:28.770Z,90.70
2019-02-21T10:21:58.485Z,90.90
2019-02-21T10:24:28.120Z,92.30
2019-02-21T10:26:57.877Z,93.40
2019-02-21T10:29:29.716Z,90.60
2019-02-21T10:31:59.145Z,93.40
2019-02-21T10:34:28.839Z,91.70
2019-02-21T10:36:58.597Z,88.10
2019-02-21T10:39:28.313Z,88.00
2019-02-21T10:41:58.062Z,81.80
2019-02-21T10:44:27.712Z,78.00
2019-02-21T10:46:57.449Z,77.10
2019-02-21T10:49:27.172Z,78.20
2019-02-21T10:51:56.921Z,77.20
2019-02-21T10:54:26.693Z,68.20
2019-02-21T10:56:56.573Z,72.70
2019-02-21T10:59:26.289Z,64.60
2019-02-21T11:01:56.213Z,62.80
2019-02-21T11:04:26.000Z,64.00
2019-02-21T11:06:55.651Z,63.00
2019-02-21T11:09:25.295Z,61.00
2019-02-21T11:11:54.937Z,59.90
2019-02-21T11:14:24.680Z,58.80
2019-02-21T11:16:54.358Z,60.30
2019-02-21T11:19:23.979Z,55.80
2019-02-21T11:21:53.798Z,55.40
2019-02-21T11:24:23.546Z,55.70
2019-02-21T11:26:53.397Z,54.80
2019-02-21T11:29:23.222Z,52.50
2019-02-21T11:31:52.982Z,55.00
2019-02-21T11:34:22.627Z,55.50
2019-02-21T11:36:52.274Z,53.70
2019-02-21T11:39:22.021Z,54.10
2019-02-21T11:41:51.657Z,55.90
2019-02-21T11:44:21.456Z,54.70
2019-02-21T11:46:51.213Z,53.40
2019-02-21T11:49:20.944Z,52.40
2019-02-21T11:51:50.788Z,52.60
2019-02-21T11:54:27.014Z,54.90
2019-02-21T11:56:51.920Z,57.90
2019-02-21T11:59:21.670Z,56.30
2019-02-21T12:01:51.393Z,56.00
2019-02-21T12:04:24.378Z,56.60
2019-02-21T12:06:53.665Z,57.50
2019-02-21T12:09:23.280Z,58.70
2019-02-21T12:11:52.987Z,58.20
2019-02-21T12:14:22.690Z,56.60
2019-02-21T12:16:52.519Z,57.00
2019-02-21T12:19:22.222Z,56.40
2019-02-21T12:21:59.040Z,57.00
2019-02-21T12:24:25.588Z,55.30
2019-02-21T12:26:55.264Z,56.60
2019-02-21T12:29:24.910Z,56.60
2019-02-21T12:31:54.585Z,57.90
2019-02-21T12:34:24.331Z,58.10
2019-02-21T12:36:54.120Z,59.90
2019-02-21T12:39:23.813Z,60.90
2019-02-21T12:41:53.509Z,59.70
2019-02-21T12:44:23.157Z,60.00
2019-02-21T12:46:52.956Z,56.80
2019-02-21T12:49:22.701Z,56.30
2019-02-21T12:51:52.389Z,57.00
2019-02-21T12:54:24.623Z,55.10
2019-02-21T12:56:53.713Z,57.40
2019-02-21T12:59:23.855Z,56.50
2019-02-21T13:01:53.676Z,55.30
2019-02-21T13:04:23.453Z,55.80
2019-02-21T13:06:53.172Z,58.90
2019-02-21T13:09:22.798Z,56.30
2019-02-21T13:11:52.620Z,50.10
2019-02-21T13:14:22.265Z,49.30
2019-02-21T13:16:52.035Z,49.10
2019-02-21T13:19:21.792Z,48.30
2019-02-21T13:21:51.564Z,48.20
2019-02-21T13:24:21.231Z,47.30
2019-02-21T13:26:51.068Z,47.60
2019-02-21T13:29:20.820Z,47.30
2019-02-21T13:31:50.484Z,48.70
2019-02-21T13:34:20.252Z,48.60
2019-02-21T13:36:50.351Z,48.70
2019-02-21T13:39:20.165Z,49.20
2019-02-21T13:41:49.960Z,49.80
2019-02-21T13:44:19.679Z,48.80
2019-02-21T13:46:49.427Z,47.40
2019-02-21T13:49:19.112Z,47.30
2019-02-21T13:51:48.849Z,47.30
2019-02-21T13:54:18.613Z,49.10
2019-02-21T13:56:48.384Z,49.70
2019-02-21T13:59:18.313Z,50.20
2019-02-21T14:01:48.176Z,52.80
2019-02-21T14:04:17.928Z,53.00
2019-02-21T14:06:47.769Z,53.80
2019-02-21T14:09:17.488Z,54.00
2019-02-21T14:11:47.176Z,55.20
2019-02-21T14:14:17.028Z,55.90
2019-02-21T14:16:47.011Z,56.70
2019-02-21T14:19:16.998Z,57.70
2019-02-21T14:21:46.758Z,58.20
2019-02-21T14:24:16.548Z,59.00
2019-02-21T14:26:46.281Z,60.50
2019-02-21T14:29:16.022Z,60.50
2019-02-21T14:31:47.685Z,61.40
2019-02-21T14:34:17.438Z,62.10
2019-02-21T14:36:47.293Z,66.10
2019-02-21T14:39:17.013Z,64.70
2019-02-21T14:41:46.763Z,64.40
2019-02-21T14:44:17.442Z,65.60
2019-02-21T14:46:47.188Z,66.10
2019-02-21T14:49:16.902Z,66.20
2019-02-21T14:51:46.629Z,66.40
2019-02-21T14:54:16.699Z,65.60
2019-02-21T14:56:46.420Z,65.20
2019-02-21T14:59:16.177Z,65.60
2019-02-21T15:01:45.911Z,64.40
2019-02-21T15:04:15.647Z,64.20
2019-02-21T15:06:45.405Z,64.50
2019-02-21T15:09:15.255Z,64.70
2019-02-21T15:11:45.021Z,64.70
2019-02-21T15:14:14.764Z,64.40
2019-02-21T15:16:44.413Z,65.40
2019-02-21T15:19:14.173Z,64.30
2019-02-21T15:21:43.885Z,64.70
2019-02-21T15:24:13.718Z,65.00
2019-02-21T15:26:43.365Z,65.90
2019-02-21T15:29:13.101Z,67.70
2019-02-21T15:31:42.848Z,67.10
2019-02-21T15:34:12.563Z,67.50
2019-02-21T15:36:42.343Z,68.70
2019-02-21T15:39:12.086Z,70.00
2019-02-21T15:41:41.926Z,71.00
2019-02-21T15:44:11.725Z,71.80
2019-02-21T15:46:41.499Z,73.20
2019-02-21T15:49:11.205Z,74.00
2019-02-21T15:51:40.990Z,75.10
2019-02-21T15:54:12.378Z,78.60
2019-02-21T15:56:42.114Z,93.20
2019-02-21T15:59:13.717Z,85.80
2019-02-21T16:01:47.521Z,85.90
2019-02-21T16:04:14.881Z,87.70
2019-02-21T16:06:50.955Z,90.50
2019-02-21T16:09:17.343Z,91.30
2019-02-21T16:11:47.002Z,92.50
2019-02-21T16:14:18.451Z,92.60
2019-02-21T16:16:48.093Z,93.70
2019-02-21T16:19:17.827Z,94.80
2019-02-21T16:21:47.499Z,95.20
2019-02-21T16:24:18.252Z,96.30
2019-02-21T16:26:48.365Z,97.90
2019-02-21T16:29:18.056Z,99.20
2019-02-21T16:31:51.250Z,99.90
2019-02-21T16:34:20.961Z,99.90
2019-02-21T16:37:02.137Z,99.90
2019-02-21T16:39:27.621Z,99.90
2019-02-21T16:41:58.843Z,99.90
2019-02-21T16:44:28.941Z,99.90
2019-02-21T16:47:00.949Z,99.90
2019-02-21T16:49:31.050Z,99.90
2019-02-21T16:52:01.385Z,99.90
2019-02-21T16:54:31.096Z,99.90
2019-02-21T16:57:01.538Z,99.90
2019-02-21T16:59:31.209Z,99.90
2019-02-21T17:02:00.849Z,99.90
2019-02-21T17:04:31.148Z,99.90
2019-02-21T17:07:00.787Z,99.90
2019-02-21T17:09:30.694Z,99.90
2019-02-21T17:12:02.266Z,99.90
2019-02-21T17:14:32.005Z,99.90
2019-02-21T17:17:02.164Z,99.90
2019-02-21T17:19:31.833Z,99.90
2019-02-21T17:22:01.565Z,99.90
2019-02-21T17:24:31.203Z,99.90
2019-02-21T17:27:00.829Z,99.90
2019-02-21T17:29:30.581Z,99.90
2019-02-21T17:32:00.365Z,99.90
2019-02-21T17:34:30.012Z,99.90
2019-02-21T17:36:59.757Z,99.90
2019-02-21T17:39:31.979Z,99.90
2019-02-21T17:42:02.498Z,99.90
2019-02-21T17:44:32.336Z,99.90
2019-02-21T17:47:02.086Z,99.90
2019-02-21T17:49:31.866Z,99.90
2019-02-21T17:52:01.604Z,99.90
2019-02-21T17:54:31.345Z,99.90
2019-02-21T17:57:01.062Z,99.90
2019-02-21T17:59:30.750Z,99.90
2019-02-21T18:02:00.441Z,99.90
2019-02-21T18:04:30.110Z,99.90
2019-02-21T18:07:01.052Z,99.90
2019-02-21T18:09:30.789Z,99.90
2019-02-21T18:12:00.478Z,99.90
2019-02-21T18:14:30.442Z,99.90
2019-02-21T18:17:00.145Z,99.90
2019-02-21T18:19:30.043Z,99.90
2019-02-21T18:21:59.821Z,99.90
2019-02-21T18:24:29.466Z,99.90
2019-02-21T18:26:59.109Z,99.90
2019-02-21T18:29:28.808Z,99.90
2019-02-21T18:31:58.626Z,99.90
2019-02-21T18:34:28.261Z,99.90
2019-02-21T18:36:58.625Z,99.90
2019-02-21T18:39:28.326Z,99.90
2019-02-21T18:41:57.957Z,99.90
2019-02-21T18:44:27.646Z,99.90
2019-02-21T18:46:57.330Z,99.90
2019-02-21T18:49:28.032Z,99.90
2019-02-21T18:51:59.969Z,99.90
2019-02-21T18:54:29.769Z,99.90
2019-02-21T18:56:59.596Z,99.90
2019-02-21T18:59:31.984Z,99.90
2019-02-21T19:02:00.665Z,99.90
2019-02-21T19:04:30.344Z,99.90
2019-02-21T19:07:00.033Z,99.90
2019-02-21T19:09:29.805Z,99.90
2019-02-21T19:12:00.050Z,99.90
2019-02-21T19:14:29.869Z,99.90
2019-02-21T19:16:59.735Z,99.90
2019-02-21T19:19:29.467Z,99.90
2019-02-21T19:21:59.397Z,99.90
2019-02-21T19:24:29.213Z,99.90
2019-02-21T19:26:59.162Z,99.90
2019-02-21T19:32:06.480Z,99.90
2019-02-21T19:34:37.538Z,99.90
2019-02-21T19:37:08.967Z,99.90
2019-02-21T19:39:39.095Z,99.90
2019-02-21T19:42:11.952Z,99.90
2019-02-21T19:44:45.185Z,99.90
2019-02-21T19:47:18.228Z,99.90
2019-02-21T19:49:48.646Z,99.90
2019-02-21T19:52:18.801Z,99.90
2019-02-21T19:54:49.708Z,99.90
2019-02-21T19:57:19.901Z,99.90
2019-02-21T19:59:50.104Z,99.90
2019-02-21T20:02:20.112Z,99.90
2019-02-21T20:04:50.193Z,99.90
2019-02-21T20:07:20.923Z,99.90
2019-02-21T20:09:51.571Z,99.90
2019-02-21T20:12:21.653Z,99.90
2019-02-21T20:14:51.791Z,99.90
2019-02-21T20:17:21.956Z,99.90
2019-02-21T20:19:52.590Z,99.90
2019-02-21T20:22:23.183Z,99.90
2019-02-21T20:24:53.845Z,99.90
2019-02-21T20:27:24.281Z,99.90
2019-02-21T20:29:55.887Z,99.90
2019-02-21T20:32:26.734Z,99.90
2019-02-21T20:34:56.821Z,99.90
2019-02-21T20:37:26.832Z,99.90
2019-02-21T20:39:58.617Z,99.90
2019-02-21T20:42:31.312Z,99.90
2019-02-21T20:45:01.412Z,99.90
2019-02-21T20:47:31.434Z,99.90
2019-02-21T20:50:01.452Z,99.90
2019-02-21T20:52:31.525Z,99.90
2019-02-21T20:55:01.673Z,99.90
2019-02-21T20:57:32.156Z,99.90
2019-02-21T21:00:02.216Z,99.90
2019-02-21T21:02:32.263Z,99.90
2019-02-21T21:05:04.176Z,99.90
2019-02-21T21:07:34.140Z,99.90
2019-02-21T21:10:06.112Z,99.90
2019-02-21T21:12:36.140Z,99.90
2019-02-21T21:15:06.572Z,99.90
2019-02-21T21:17:36.638Z,99.90
2019-02-21T21:20:15.865Z,99.90
2019-02-21T21:22:40.736Z,99.90
2019-02-21T21:25:13.610Z,99.90
2019-02-21T21:27:43.913Z,99.90
2019-02-21T21:30:14.859Z,99.90
2019-02-21T21:32:45.016Z,99.90
2019-02-21T21:35:15.588Z,99.90
2019-02-21T21:37:46.874Z,99.90
2019-02-21T21:40:17.044Z,99.90
2019-02-21T21:42:46.970Z,99.90
2019-02-21T21:45:17.309Z,99.90
2019-02-21T21:47:47.438Z,99.90
2019-02-21T21:50:18.542Z,99.90
2019-02-21T21:52:50.964Z,99.90
2019-02-21T21:55:20.975Z,99.90
2019-02-21T21:57:51.955Z,99.90
2019-02-21T22:00:24.071Z,99.90
2019-02-21T22:02:54.503Z,99.90
2019-02-21T22:05:24.548Z,99.90
2019-02-21T22:07:56.811Z,99.90
2019-02-21T22:10:28.130Z,99.90
2019-02-21T22:12:58.110Z,99.90
2019-02-21T22:15:30.615Z,99.90
2019-02-21T22:18:03.580Z,99.90
2019-02-21T22:20:34.074Z,99.90
2019-02-21T22:23:03.990Z,99.90
2019-02-21T22:25:34.194Z,99.90
2019-02-21T22:28:04.131Z,99.90
2019-02-21T22:30:34.429Z,99.90
2019-02-21T22:33:04.365Z,99.90
2019-02-21T22:35:35.007Z,99.90
2019-02-21T22:38:05.014Z,99.90
2019-02-21T22:40:35.066Z,99.90
2019-02-21T22:43:05.180Z,99.90
2019-02-21T22:45:35.072Z,99.90
2019-02-21T22:48:05.081Z,99.90
2019-02-21T22:50:35.476Z,99.90
2019-02-21T22:53:07.634Z,99.90
2019-02-21T22:55:37.975Z,99.90
2019-02-21T22:58:08.369Z,99.90
2019-02-21T23:01:02.134Z,99.90
2019-02-21T23:03:44.875Z,99.90
2019-02-21T23:06:54.058Z,99.90
2019-02-21T23:09:27.931Z,99.90
2019-02-21T23:11:57.245Z,99.90
2019-02-21T23:14:27.239Z,99.90
2019-02-21T23:16:58.540Z,99.90
2019-02-21T23:19:28.685Z,99.90
2019-02-21T23:21:58.566Z,99.90
2019-02-21T23:24:28.707Z,99.90
2019-02-21T23:26:58.627Z,99.90
2019-02-21T23:29:28.995Z,99.90
2019-02-21T23:31:59.062Z,99.90
2019-02-21T23:34:38.034Z,99.90
2019-02-21T23:37:08.067Z,99.90
2019-02-21T23:39:38.787Z,99.90
2019-02-21T23:42:09.018Z,99.90
2019-02-21T23:44:39.015Z,99.90
2019-02-21T23:47:08.949Z,99.90
2019-02-21T23:49:41.094Z,99.90
2019-02-21T23:52:11.816Z,99.90
2019-02-21T23:54:42.780Z,99.90
2019-02-21T23:57:12.699Z,99.90
2019-02-21T23:59:43.637Z,99.90
